Lewisport, KY

5:48 PM CST on December 27, 2014 (GMT -0600)
RMR - Owensboro | Change Station
CLOSE
Current Station
Personal Weather Station
Location: Owensboro, KY
Elevation: 387 ft
Nearby Weather Stations

Elev 387 ft 37.83 °N, 87.02 °W | Updated 3 minutes ago

Rain
Rain
48.4 °F
Feels Like 48 °F
N
0.0
Wind Variable Wind from WSW
Gusts 0.0 mph

Today
High -- | Low -- °F
--% Chance of Precip.
Yesterday
High -- | Low -- °F
Precip. -- in
7:02 AM 4:35 PM
Waxing Crescent, 41% visible
Pressure 30.10 in
Visibility 7.0 miles
Clouds Overcast 500 ft
Windchill 48 °F
Dew Point 47 °F
Humidity 94%
Rainfall 0.18 in
Snow Depth Not available.
UV 0 out of 12
Pollen 1.60 out of 12
Air Quality Not available.
Flu Activity Not available.
METAR KOWB 272303Z 17005KT 7SM OVC005 09/09 A3010 RMK AO2 CIG 001V007

More Conditions Fewer Conditions

Pressure 30.10 in
Visibility 7.0 miles
Clouds Overcast 500 ft
Windchill 48 °F
Dew Point 47 °F
Humidity 94%
Rainfall 0.18 in
Snow Depth Not available.
UV 0 out of 12
Pollen 1.60 out of 12
Air Quality Not available.
Flu Activity Not available.
METAR KOWB 272303Z 17005KT 7SM OVC005 09/09 A3010 RMK AO2 CIG 001V007

More Conditions Fewer Conditions

10-Day Weather Forecast

Almanac

Astronomy

Dec. 27, 2014 Rise Set
Actual Time
Civil Twilight
Nautical Twilight
Astronomical Twilight
Moon
Length of Visible Light
Length of Day
Tomorrow will be .
, % of the Moon is Illuminated

Today's Extremes

State Highs State Lows

Community

WunderPhotos

Upload Photos

1,781,110 photos uploaded!

WunderBlogs® & News

Nearby

Air Quality

  Air Quality AQ Index Pollutant
Not available.

Snow Depth

Station Depth Elevation

Earthquake Activity

City Distance Mag. Time & Date
Minimum magnitude displayed is 2.5.

Coastal Water Temperatures

Place Temperature

Nearby Weather Stations